Tepic, Mexico

9:15 PM MDT on August 30, 2016 (GMT -0600)
Tepic | | Change Station

Elev 3018 ft 21.42 °N, 104.84 °W | Updated 24 minutes ago

Overcast
Overcast
72 °F
Feels Like 72 °F
N
6
Wind Variable Wind from SW

Today
High -- | Low -- °F
--% Chance of Precip.
Yesterday
High -- | Low -- °F
Precip. -- in
Pressure 29.96 in
Visibility 5.0 miles
Clouds Scattered Clouds 500 ft
Overcast 2000 ft
Dew Point 70 °F
Humidity 94%
Rainfall 0.00 in
Snow Depth Not available.
6:42 AM 7:17 PM
Waning Crescent, 2% visible
METAR MMEP 310251Z 22005KT 5SM SCT005 OVC020 22/21 A3003 RMK SLP146 52033 905 8/5// ST LWR N
Pressure 29.96 in
Visibility 5.0 miles
Clouds Scattered Clouds 500 ft
Overcast 2000 ft
Dew Point 70 °F
Humidity 94%
Rainfall 0.00 in
Snow Depth Not available.
6:42 AM 7:17 PM
Waning Crescent, 2% visible
METAR MMEP 310251Z 22005KT 5SM SCT005 OVC020 22/21 A3003 RMK SLP146 52033 905 8/5// ST LWR N

10-Day Weather Forecast

No radar image for this location.
×

Almanac

Astronomy

Aug. 30, 2016 Rise Set
Actual Time
Civil Twilight
Nautical Twilight
Astronomical Twilight
Moon
Length of Visible Light
Length of Day
Tomorrow will be .
, % of the Moon is Illuminated

Today's Extremes

Country Highs Country Lows

Community

WunderPhotos

Upload Photos

1,936,016 photos uploaded!

WunderBlog® & News

Nearby

Air Quality

  Air Quality AQ Index Pollutant
Not available.

Snow Depth

Station Depth Elevation

Earthquake Activity

City Distance Mag. Time & Date
Minimum magnitude displayed is 2.5.

Coastal Water Temperatures

Place Temperature

Stations

Nearby Weather Stations

Station Location Temp. Windchill Dew Point Humidity Wind Precip. Elev Updated Type